Chesterfield, MA (01012)

9:22 PM EDT on August 21, 2014 (GMT -0400)
Chesterfield | Change Station
CLOSE
Current Station
Personal Weather Station
Location: Chesterfield, MA
Elevation: 1190 ft
Nearby Weather Stations

Elev 1190 ft 42.36 °N, 72.85 °W | Updated 5 minutes ago

Overcast
Overcast
63.8 °F
Feels Like 63.8 °F
N
0.0
Wind Variable Wind from SE
Gusts 0.0 mph

Today
High -- | Low -- °F
--% Chance of Precip.
Yesterday
High -- | Low -- °F
Precip. -- in
6:04 AM 7:43 PM
Waning Crescent, 11% visible
Pressure 30.05 in
Visibility 10.0 miles
Clouds Mostly Cloudy 4000 ft
Overcast 4700 ft
Dew Point 62 °F
Humidity 95%
Rainfall 0.41 in
Snow Depth Not available.
UV 0 out of 12
Pollen 8.00 out of 12
Ozone Good
PM2.5 Good
Flu Activity Not available.
METAR KBAF 220053Z 36004KT 10SM BKN040 OVC047 21/18 A3005 RMK AO2 SLP175 T02060183

More Conditions Fewer Conditions

Pressure 30.05 in
Visibility 10.0 miles
Clouds Mostly Cloudy 4000 ft
Overcast 4700 ft
Dew Point 62 °F
Humidity 95%
Rainfall 0.41 in
Snow Depth Not available.
UV 0 out of 12
Pollen 8.00 out of 12
Ozone Good
PM2.5 Good
Flu Activity Not available.
METAR KBAF 220053Z 36004KT 10SM BKN040 OVC047 21/18 A3005 RMK AO2 SLP175 T02060183

More Conditions Fewer Conditions

10-Day Weather Forecast

Almanac

Astronomy

Aug. 21, 2014 Rise Set
Actual Time 6:04 AM EDT 7:43 PM EDT
Civil Twilight 5:35 AM EDT 8:13 PM EDT
Nautical Twilight 4:58 AM EDT 8:48 PM EDT
Astronomical Twilight 4:20 AM EDT 9:27 PM EDT
Moon 2:30 AM EDT (8/21) 5:11 PM EDT (8/21)
Length of Visible Light 14h 37m
Length of Day
13h 38m
Tomorrow will be 2m 38s shorter.
Waning Crescent, 11% of the Moon is Illuminated
Today
Waning Crescent
Aug 25
New
Sep 2
First Quarter
Sep 8
Full
Sep 15
Last Quarter

Today's Extremes

State Highs State Lows

Community

WunderPhotos

Upload Photos

1,746,102 photos uploaded!

Nearby

Air Quality

  Air Quality AQ Index Pollutant
Yesterday Good
OZONE
Yesterday Good
PM2.5
Current Good
PM2.5
Current Good
OZONE
Thursday Good
PM2.5
Thursday Good
OZONE
Friday Good
PM2.5
Friday Good
OZONE

Snow Depth

Station Depth Elevation
No new snow has been reported.

Earthquake Activity

City Distance Mag. Time & Date
No recent earthquake activity has been reported nearby.
Minimum magnitude displayed is 2.5.

Coastal Water Temperatures

Place Temperature
No Stations Reporting

Nearby Weather Stations